createdAt,value
2018-08-10T00:04:06.875Z,98.50
2018-08-10T00:09:11.823Z,99.90
2018-08-10T00:14:15.463Z,98.60
2018-08-10T00:19:19.025Z,98.20
2018-08-10T00:24:23.979Z,98.10
2018-08-10T00:29:27.534Z,98.50
2018-08-10T00:34:31.070Z,98.30
2018-08-10T00:39:34.804Z,99.10
2018-08-10T00:44:38.443Z,98.20
2018-08-10T00:49:41.958Z,97.30
2018-08-10T00:54:46.526Z,97.90
2018-08-10T00:59:50.064Z,97.20
2018-08-10T01:04:53.925Z,97.40
2018-08-10T01:09:57.566Z,99.10
2018-08-10T01:15:01.095Z,97.90
2018-08-10T01:20:09.373Z,97.30
2018-08-10T01:25:13.511Z,97.10
2018-08-10T01:30:17.224Z,96.90
2018-08-10T01:35:21.163Z,96.70
2018-08-10T01:40:24.738Z,96.60
2018-08-10T01:45:28.334Z,98.30
2018-08-10T01:50:32.030Z,97.60
2018-08-10T01:55:35.650Z,96.90
2018-08-10T02:00:39.201Z,97.20
2018-08-10T02:05:42.764Z,98.00
2018-08-10T02:10:46.630Z,98.00
2018-08-10T02:15:50.270Z,97.40
2018-08-10T02:20:53.839Z,96.70
2018-08-10T02:25:57.772Z,97.40
2018-08-10T02:31:01.394Z,97.20
2018-08-10T02:36:04.955Z,96.80
2018-08-10T02:41:08.526Z,95.70
2018-08-10T02:46:12.135Z,99.90
2018-08-10T02:51:15.690Z,98.90
2018-08-10T02:56:19.310Z,97.70
2018-08-10T03:01:22.870Z,95.90
2018-08-10T03:06:33.096Z,96.70
2018-08-10T03:11:36.678Z,96.70
2018-08-10T03:16:40.276Z,97.80
2018-08-10T03:21:43.900Z,97.40
2018-08-10T03:26:47.542Z,96.40
2018-08-10T03:31:51.180Z,97.30
2018-08-10T03:36:54.846Z,97.40
2018-08-10T03:41:59.678Z,97.40
2018-08-10T03:47:03.258Z,96.60
2018-08-10T03:52:06.997Z,97.20
2018-08-10T03:57:10.552Z,96.90
2018-08-10T04:02:14.207Z,97.00
2018-08-10T04:07:17.699Z,97.50
2018-08-10T04:12:21.391Z,97.00
2018-08-10T04:17:26.440Z,98.90
2018-08-10T04:22:31.050Z,96.90
2018-08-10T04:27:34.643Z,99.20
2018-08-10T04:32:39.554Z,97.40
2018-08-10T04:37:43.106Z,98.90
2018-08-10T04:42:47.685Z,97.40
2018-08-10T04:47:51.360Z,97.80
2018-08-10T04:52:57.027Z,97.70
2018-08-10T04:58:00.650Z,97.70
2018-08-10T05:03:04.376Z,98.00
2018-08-10T05:08:08.807Z,97.70
2018-08-10T05:13:12.357Z,98.20
2018-08-10T05:18:15.907Z,97.60
2018-08-10T05:23:23.382Z,97.10
2018-08-10T05:28:26.987Z,97.20
2018-08-10T05:33:30.578Z,97.70
2018-08-10T05:38:34.158Z,98.00
2018-08-10T05:43:40.270Z,97.40
2018-08-10T05:48:44.077Z,99.70
2018-08-10T05:53:47.640Z,97.20
2018-08-10T05:58:51.198Z,97.80
2018-08-10T06:03:54.878Z,97.30
2018-08-10T06:08:58.314Z,97.50
2018-08-10T06:14:01.844Z,96.70
2018-08-10T06:19:05.391Z,97.00
2018-08-10T06:24:08.965Z,96.50
2018-08-10T06:29:12.642Z,95.00
2018-08-10T06:34:16.203Z,94.90
2018-08-10T06:39:19.718Z,93.70
2018-08-10T06:44:23.206Z,93.10
2018-08-10T06:49:27.007Z,93.90
2018-08-10T06:54:31.063Z,94.20
2018-08-10T06:59:34.598Z,87.10
2018-08-10T07:04:39.222Z,91.10
2018-08-10T07:09:42.766Z,88.30
2018-08-10T07:14:46.331Z,71.60
2018-08-10T07:19:50.193Z,63.50
2018-08-10T07:24:53.740Z,59.30
2018-08-10T07:29:57.342Z,57.70
2018-08-10T07:35:00.892Z,53.90
2018-08-10T07:40:04.778Z,54.20
2018-08-10T07:45:08.365Z,51.90
2018-08-10T07:50:12.502Z,54.50
2018-08-10T07:55:16.106Z,48.50
2018-08-10T08:00:19.654Z,47.40
2018-08-10T08:06:06.788Z,50.50
2018-08-10T08:11:10.406Z,47.50
2018-08-10T08:16:14.371Z,50.40
2018-08-10T08:21:18.370Z,48.60
2018-08-10T08:26:23.058Z,47.50
2018-08-10T08:31:26.663Z,49.60
2018-08-10T08:36:30.582Z,48.30
2018-08-10T08:41:34.162Z,47.70
2018-08-10T08:46:37.953Z,46.60
2018-08-10T08:51:41.312Z,46.40
2018-08-10T08:56:45.137Z,46.90
2018-08-10T09:01:48.748Z,45.20
2018-08-10T09:06:52.366Z,44.60
2018-08-10T09:12:02.871Z,45.00
2018-08-10T09:17:06.741Z,42.60
2018-08-10T09:22:10.728Z,47.10
2018-08-10T09:27:14.604Z,48.20
2018-08-10T09:32:18.361Z,44.30
2018-08-10T09:37:21.898Z,44.30
2018-08-10T09:42:25.459Z,43.10
2018-08-10T09:47:29.038Z,41.80
2018-08-10T09:52:32.630Z,42.80
2018-08-10T09:57:36.496Z,42.10
2018-08-10T10:02:44.234Z,42.40
2018-08-10T10:07:47.862Z,41.30
2018-08-10T10:12:51.446Z,42.40
2018-08-10T10:17:55.331Z,42.80
2018-08-10T10:22:59.210Z,40.70
2018-08-10T10:28:02.820Z,40.30
2018-08-10T10:33:06.822Z,37.90
2018-08-10T10:38:10.438Z,45.10
2018-08-10T10:43:15.046Z,47.00
2018-08-10T10:48:18.901Z,46.50
2018-08-10T10:53:22.539Z,41.80
2018-08-10T10:58:26.098Z,42.50
2018-08-10T11:03:29.651Z,44.80
2018-08-10T11:08:33.509Z,40.50
2018-08-10T11:13:37.142Z,40.10
2018-08-10T11:18:40.741Z,41.30
2018-08-10T11:23:44.482Z,42.30
2018-08-10T11:28:48.049Z,46.40
2018-08-10T11:33:53.822Z,42.60
2018-08-10T11:38:57.494Z,40.70
2018-08-10T11:44:01.071Z,41.80
2018-08-10T11:49:04.697Z,39.30
2018-08-10T11:54:08.456Z,41.60
2018-08-10T11:59:12.040Z,42.90
2018-08-10T12:04:15.649Z,41.50
2018-08-10T12:09:19.321Z,41.50
2018-08-10T12:14:22.974Z,44.10
2018-08-10T12:19:29.678Z,39.50
2018-08-10T12:24:37.489Z,40.00
2018-08-10T12:29:41.154Z,39.60
2018-08-10T12:34:48.450Z,39.10
2018-08-10T12:39:53.512Z,40.20
2018-08-10T12:44:57.140Z,38.70
2018-08-10T12:50:02.046Z,38.20
2018-08-10T12:55:06.086Z,40.40
2018-08-10T13:00:11.521Z,40.30
2018-08-10T13:05:15.294Z,38.40
2018-08-10T13:10:20.411Z,38.50
2018-08-10T13:15:26.148Z,39.40
2018-08-10T13:25:38.613Z,41.50
2018-08-10T13:30:46.950Z,39.90
2018-08-10T13:35:50.589Z,42.10
2018-08-10T13:40:54.206Z,41.30
2018-08-10T13:45:57.870Z,43.70
2018-08-10T13:51:01.518Z,43.40
2018-08-10T13:56:05.261Z,41.10
2018-08-10T14:01:08.969Z,44.90
2018-08-10T14:06:12.827Z,42.60
2018-08-10T14:11:16.509Z,42.00
2018-08-10T14:16:21.478Z,44.00
2018-08-10T14:21:29.762Z,45.20
2018-08-10T14:26:35.398Z,47.50
2018-08-10T14:31:39.882Z,42.00
2018-08-10T14:36:43.566Z,42.00
2018-08-10T14:41:51.050Z,42.90
2018-08-10T14:46:55.044Z,36.80
2018-08-10T14:51:58.778Z,46.20
2018-08-10T14:57:02.413Z,40.40
2018-08-10T15:02:07.386Z,40.50
2018-08-10T15:07:10.991Z,42.10
2018-08-10T15:12:14.764Z,38.80
2018-08-10T15:17:18.238Z,43.40
2018-08-10T15:22:25.693Z,43.70
2018-08-10T15:27:29.349Z,37.30
2018-08-10T15:32:33.039Z,42.70
2018-08-10T15:37:36.994Z,39.20
2018-08-10T15:42:40.601Z,42.10
2018-08-10T15:47:44.873Z,41.20
2018-08-10T15:52:52.427Z,45.30
2018-08-10T15:57:56.018Z,39.30
2018-08-10T16:02:59.762Z,38.90
2018-08-10T16:08:03.560Z,45.50
2018-08-10T16:13:08.331Z,39.80
2018-08-10T16:18:13.296Z,43.30
2018-08-10T16:23:19.305Z,48.40
2018-08-10T16:28:25.005Z,41.40
2018-08-10T16:33:32.618Z,42.30
2018-08-10T16:38:36.550Z,40.50
2018-08-10T16:43:40.137Z,41.80
2018-08-10T16:48:43.817Z,38.40
2018-08-10T16:53:47.412Z,38.50
2018-08-10T16:58:52.057Z,39.40
2018-08-10T17:03:55.718Z,46.70
2018-08-10T17:09:06.480Z,41.90
2018-08-10T17:14:10.050Z,40.60
2018-08-10T17:19:13.741Z,42.10
2018-08-10T17:24:19.459Z,49.40
2018-08-10T17:29:24.134Z,39.80
2018-08-10T17:34:31.874Z,44.40
2018-08-10T17:39:39.887Z,49.90
2018-08-10T17:44:43.963Z,43.50
2018-08-10T17:49:48.677Z,41.60
2018-08-10T17:54:55.219Z,41.80
2018-08-10T17:59:58.805Z,43.80
2018-08-10T18:05:02.465Z,42.40
2018-08-10T18:10:06.382Z,47.00
2018-08-10T18:15:13.472Z,51.50
2018-08-10T18:20:19.150Z,44.10
2018-08-10T18:25:23.591Z,44.50
2018-08-10T18:30:28.418Z,43.20
2018-08-10T18:35:33.260Z,43.10
2018-08-10T18:40:37.037Z,45.20
2018-08-10T18:45:40.818Z,43.90
2018-08-10T18:50:44.593Z,44.70
2018-08-10T18:55:48.097Z,44.40
2018-08-10T19:00:53.810Z,44.70
2018-08-10T19:05:58.524Z,54.50
2018-08-10T19:11:06.460Z,45.10
2018-08-10T19:16:10.114Z,45.70
2018-08-10T19:21:13.859Z,47.10
2018-08-10T19:26:18.073Z,46.40
2018-08-10T19:31:21.797Z,47.70
2018-08-10T19:36:25.402Z,47.30
2018-08-10T19:41:29.630Z,49.00
2018-08-10T19:46:33.396Z,49.90
2018-08-10T19:51:41.158Z,50.70
2018-08-10T19:56:45.119Z,51.60
2018-08-10T20:01:50.436Z,53.00
2018-08-10T20:06:56.023Z,54.60
2018-08-10T20:11:59.693Z,54.00
2018-08-10T20:17:03.494Z,56.20
2018-08-10T20:22:13.755Z,56.60
2018-08-10T20:27:17.473Z,55.30
2018-08-10T20:32:23.774Z,55.80
2018-08-10T20:37:28.405Z,57.60
2018-08-10T20:42:32.077Z,57.10
2018-08-10T20:47:36.026Z,56.30
2018-08-10T20:52:39.605Z,57.90
2018-08-10T20:57:45.145Z,57.60
2018-08-10T21:02:49.185Z,58.00
2018-08-10T21:07:57.143Z,60.10
2018-08-10T21:13:00.693Z,61.20
2018-08-10T21:18:05.589Z,60.10
2018-08-10T21:23:09.614Z,60.60
2018-08-10T21:28:13.517Z,61.40
2018-08-10T21:33:17.171Z,61.70
2018-08-10T21:38:20.722Z,62.90
2018-08-10T21:43:24.586Z,64.80
2018-08-10T21:48:29.484Z,65.70
2018-08-10T21:53:33.411Z,65.00
2018-08-10T21:58:37.363Z,64.70
2018-08-10T22:03:40.946Z,66.60
2018-08-10T22:08:47.755Z,68.80
2018-08-10T22:13:58.718Z,69.10
2018-08-10T22:19:07.847Z,69.10
2018-08-10T22:24:12.585Z,70.20
2018-08-10T22:29:16.554Z,70.60
2018-08-10T22:34:23.741Z,71.30
2018-08-10T22:39:27.372Z,71.80
2018-08-10T22:44:31.318Z,72.90
2018-08-10T22:49:34.874Z,76.20
2018-08-10T22:54:38.478Z,74.80
2018-08-10T22:59:47.785Z,75.80
2018-08-10T23:04:51.376Z,77.40
2018-08-10T23:09:54.951Z,77.80
2018-08-10T23:14:58.548Z,76.50
2018-08-10T23:20:02.319Z,78.30
2018-08-10T23:25:11.597Z,76.70
2018-08-10T23:30:16.462Z,77.80
2018-08-10T23:35:20.253Z,78.30
2018-08-10T23:40:23.820Z,79.10
2018-08-10T23:45:28.706Z,79.50
2018-08-10T23:50:32.382Z,80.50
2018-08-10T23:55:36.118Z,82.20
